Sugarloaf, Florida
Current Conditions -  °F | °C
As of 11:53 AM on Friday 24 Oct 2014 (Local Time) from KNQX Reporting Station
Overcast Overcast  
Wind Chill: 78°   Ceiling: 1400
Heat Index: 80°   Visibility: 10mi
Dew Point: 72°   Wind: 16mph
Humidity: 81%   Direction: 20°NNE
Pressure: 29.87"   Gusts: 23mph
Location:  24.6465°N, 81.5399°W
Report Text: KNQX 241553Z 02014G20KT 10SM BKN014 BKN040 OVC070 26/22 A2987 RMK AO2 SLP114 T02560222 $
Loading
Personal Weather Stations






























Interactive Weather Map
Tropical Storm Tracking
New forecast layout! Learn more

10-Day Weather Forecast

Advertisements
Track Severe Weather on mobile